sensor_id;sensor_type;location;lat;lon;timestamp;P1;durP1;ratioP1;P2;durP2;ratioP2
59974;SDS011;62136;-35.664;-63.766;2024-03-25T00:00:13;2.53;;;1.58;;
59974;SDS011;62136;-35.664;-63.766;2024-03-25T00:02:41;2.25;;;1.33;;
59974;SDS011;62136;-35.664;-63.766;2024-03-25T00:05:08;3.47;;;1.60;;
59974;SDS011;62136;-35.664;-63.766;2024-03-25T00:07:36;2.22;;;1.60;;
59974;SDS011;62136;-35.664;-63.766;2024-03-25T00:10:04;2.83;;;1.48;;
59974;SDS011;62136;-35.664;-63.766;2024-03-25T00:12:34;2.67;;;1.52;;
59974;SDS011;62136;-35.664;-63.766;2024-03-25T00:15:01;2.90;;;1.60;;
59974;SDS011;62136;-35.664;-63.766;2024-03-25T00:17:28;2.83;;;1.60;;
59974;SDS011;62136;-35.664;-63.766;2024-03-25T00:19:56;2.08;;;1.35;;
59974;SDS011;62136;-35.664;-63.766;2024-03-25T00:22:23;3.50;;;1.70;;
59974;SDS011;62136;-35.664;-63.766;2024-03-25T00:24:53;2.45;;;1.63;;
59974;SDS011;62136;-35.664;-63.766;2024-03-25T00:27:20;2.78;;;1.90;;
59974;SDS011;62136;-35.664;-63.766;2024-03-25T00:29:47;2.22;;;1.70;;
59974;SDS011;62136;-35.664;-63.766;2024-03-25T00:32:14;2.13;;;1.40;;
59974;SDS011;62136;-35.664;-63.766;2024-03-25T00:34:41;1.83;;;1.50;;
59974;SDS011;62136;-35.664;-63.766;2024-03-25T00:37:11;3.28;;;1.63;;
59974;SDS011;62136;-35.664;-63.766;2024-03-25T00:39:38;2.00;;;1.40;;
59974;SDS011;62136;-35.664;-63.766;2024-03-25T00:42:05;2.60;;;1.60;;
59974;SDS011;62136;-35.664;-63.766;2024-03-25T00:44:32;2.10;;;1.70;;
59974;SDS011;62136;-35.664;-63.766;2024-03-25T00:46:59;2.50;;;1.40;;
59974;SDS011;62136;-35.664;-63.766;2024-03-25T00:49:26;1.92;;;1.50;;
59974;SDS011;62136;-35.664;-63.766;2024-03-25T00:51:53;2.85;;;1.80;;
59974;SDS011;62136;-35.664;-63.766;2024-03-25T00:54:20;2.65;;;1.45;;
59974;SDS011;62136;-35.664;-63.766;2024-03-25T00:56:49;3.13;;;1.50;;
59974;SDS011;62136;-35.664;-63.766;2024-03-25T00:59:17;3.50;;;1.77;;
59974;SDS011;62136;-35.664;-63.766;2024-03-25T01:01:44;2.17;;;1.40;;
59974;SDS011;62136;-35.664;-63.766;2024-03-25T01:04:11;2.63;;;1.70;;
59974;SDS011;62136;-35.664;-63.766;2024-03-25T01:06:38;2.72;;;1.73;;
59974;SDS011;62136;-35.664;-63.766;2024-03-25T01:09:05;2.00;;;1.65;;
59974;SDS011;62136;-35.664;-63.766;2024-03-25T01:11:33;2.08;;;1.70;;
59974;SDS011;62136;-35.664;-63.766;2024-03-25T01:14:00;4.90;;;1.90;;
59974;SDS011;62136;-35.664;-63.766;2024-03-25T01:16:27;1.95;;;1.75;;
59974;SDS011;62136;-35.664;-63.766;2024-03-25T01:18:54;2.72;;;1.60;;
59974;SDS011;62136;-35.664;-63.766;2024-03-25T01:21:22;5.70;;;1.80;;
59974;SDS011;62136;-35.664;-63.766;2024-03-25T01:23:48;4.68;;;1.80;;
59974;SDS011;62136;-35.664;-63.766;2024-03-25T01:26:15;3.55;;;2.20;;
59974;SDS011;62136;-35.664;-63.766;2024-03-25T01:28:42;2.80;;;1.67;;
59974;SDS011;62136;-35.664;-63.766;2024-03-25T01:31:09;3.03;;;2.20;;
59974;SDS011;62136;-35.664;-63.766;2024-03-25T01:33:36;3.13;;;2.25;;
59974;SDS011;62136;-35.664;-63.766;2024-03-25T01:36:03;4.22;;;2.10;;
59974;SDS011;62136;-35.664;-63.766;2024-03-25T01:38:31;2.53;;;1.90;;
59974;SDS011;62136;-35.664;-63.766;2024-03-25T01:41:10;2.78;;;2.10;;
59974;SDS011;62136;-35.664;-63.766;2024-03-25T01:43:40;3.47;;;2.10;;
59974;SDS011;62136;-35.664;-63.766;2024-03-25T01:46:08;3.15;;;2.15;;
59974;SDS011;62136;-35.664;-63.766;2024-03-25T01:48:36;3.95;;;2.60;;
59974;SDS011;62136;-35.664;-63.766;2024-03-25T01:51:03;4.20;;;1.95;;
59974;SDS011;62136;-35.664;-63.766;2024-03-25T01:53:30;3.78;;;2.10;;
59974;SDS011;62136;-35.664;-63.766;2024-03-25T01:55:58;3.05;;;2.17;;
59974;SDS011;62136;-35.664;-63.766;2024-03-25T01:58:25;2.53;;;1.90;;
59974;SDS011;62136;-35.664;-63.766;2024-03-25T02:00:53;4.00;;;2.15;;
59974;SDS011;62136;-35.664;-63.766;2024-03-25T02:03:22;2.70;;;2.10;;
59974;SDS011;62136;-35.664;-63.766;2024-03-25T02:05:50;2.42;;;2.20;;
59974;SDS011;62136;-35.664;-63.766;2024-03-25T02:08:24;4.55;;;2.60;;
59974;SDS011;62136;-35.664;-63.766;2024-03-25T02:10:53;2.92;;;2.17;;
59974;SDS011;62136;-35.664;-63.766;2024-03-25T02:13:21;2.30;;;2.10;;
59974;SDS011;62136;-35.664;-63.766;2024-03-25T02:15:48;3.78;;;2.35;;
59974;SDS011;62136;-35.664;-63.766;2024-03-25T02:18:17;2.30;;;1.80;;
59974;SDS011;62136;-35.664;-63.766;2024-03-25T02:20:44;3.60;;;2.10;;
59974;SDS011;62136;-35.664;-63.766;2024-03-25T02:23:11;3.92;;;2.10;;
59974;SDS011;62136;-35.664;-63.766;2024-03-25T02:25:39;3.55;;;2.30;;
59974;SDS011;62136;-35.664;-63.766;2024-03-25T02:28:08;2.92;;;2.17;;
59974;SDS011;62136;-35.664;-63.766;2024-03-25T02:30:35;2.95;;;2.25;;
59974;SDS011;62136;-35.664;-63.766;2024-03-25T02:33:04;3.08;;;2.50;;
59974;SDS011;62136;-35.664;-63.766;2024-03-25T02:35:31;3.30;;;2.47;;
59974;SDS011;62136;-35.664;-63.766;2024-03-25T02:37:58;3.28;;;2.50;;
59974;SDS011;62136;-35.664;-63.766;2024-03-25T02:40:25;3.42;;;2.38;;
59974;SDS011;62136;-35.664;-63.766;2024-03-25T02:42:52;3.72;;;2.28;;
59974;SDS011;62136;-35.664;-63.766;2024-03-25T02:45:19;3.85;;;2.53;;
59974;SDS011;62136;-35.664;-63.766;2024-03-25T02:47:47;3.22;;;2.58;;
59974;SDS011;62136;-35.664;-63.766;2024-03-25T02:50:14;2.97;;;2.00;;
59974;SDS011;62136;-35.664;-63.766;2024-03-25T02:52:41;5.10;;;2.72;;
59974;SDS011;62136;-35.664;-63.766;2024-03-25T02:55:08;4.90;;;2.20;;
59974;SDS011;62136;-35.664;-63.766;2024-03-25T02:57:35;3.50;;;2.10;;
59974;SDS011;62136;-35.664;-63.766;2024-03-25T03:00:02;3.25;;;2.08;;
59974;SDS011;62136;-35.664;-63.766;2024-03-25T03:02:30;2.63;;;2.20;;
59974;SDS011;62136;-35.664;-63.766;2024-03-25T03:04:57;3.47;;;2.20;;
59974;SDS011;62136;-35.664;-63.766;2024-03-25T03:07:24;3.85;;;2.28;;
59974;SDS011;62136;-35.664;-63.766;2024-03-25T03:09:51;3.95;;;2.40;;
59974;SDS011;62136;-35.664;-63.766;2024-03-25T03:12:18;2.53;;;1.92;;
59974;SDS011;62136;-35.664;-63.766;2024-03-25T03:14:45;3.55;;;2.30;;
59974;SDS011;62136;-35.664;-63.766;2024-03-25T03:17:12;4.10;;;2.60;;
59974;SDS011;62136;-35.664;-63.766;2024-03-25T03:19:39;3.38;;;2.08;;
59974;SDS011;62136;-35.664;-63.766;2024-03-25T03:22:06;3.83;;;2.30;;
59974;SDS011;62136;-35.664;-63.766;2024-03-25T03:24:33;3.78;;;2.45;;
59974;SDS011;62136;-35.664;-63.766;2024-03-25T03:27:00;3.35;;;2.17;;
59974;SDS011;62136;-35.664;-63.766;2024-03-25T03:29:27;3.75;;;2.00;;
59974;SDS011;62136;-35.664;-63.766;2024-03-25T03:31:55;3.83;;;2.33;;
59974;SDS011;62136;-35.664;-63.766;2024-03-25T03:34:22;2.38;;;2.05;;
59974;SDS011;62136;-35.664;-63.766;2024-03-25T03:36:49;2.38;;;2.03;;
59974;SDS011;62136;-35.664;-63.766;2024-03-25T03:39:16;4.28;;;2.30;;
59974;SDS011;62136;-35.664;-63.766;2024-03-25T03:41:43;2.55;;;2.10;;
59974;SDS011;62136;-35.664;-63.766;2024-03-25T03:44:10;3.80;;;2.15;;
59974;SDS011;62136;-35.664;-63.766;2024-03-25T03:46:40;2.28;;;2.08;;
59974;SDS011;62136;-35.664;-63.766;2024-03-25T03:49:07;3.78;;;2.03;;
59974;SDS011;62136;-35.664;-63.766;2024-03-25T03:51:34;4.13;;;1.92;;
59974;SDS011;62136;-35.664;-63.766;2024-03-25T03:54:00;2.50;;;2.08;;
59974;SDS011;62136;-35.664;-63.766;2024-03-25T03:56:27;3.97;;;2.33;;
59974;SDS011;62136;-35.664;-63.766;2024-03-25T03:58:55;2.92;;;1.92;;
59974;SDS011;62136;-35.664;-63.766;2024-03-25T04:01:22;6.00;;;2.40;;
59974;SDS011;62136;-35.664;-63.766;2024-03-25T04:03:49;3.88;;;2.15;;
59974;SDS011;62136;-35.664;-63.766;2024-03-25T04:06:16;3.75;;;2.03;;
59974;SDS011;62136;-35.664;-63.766;2024-03-25T04:08:43;3.00;;;2.33;;
59974;SDS011;62136;-35.664;-63.766;2024-03-25T04:11:10;2.85;;;2.10;;
59974;SDS011;62136;-35.664;-63.766;2024-03-25T04:13:37;3.80;;;1.92;;
59974;SDS011;62136;-35.664;-63.766;2024-03-25T04:16:04;3.08;;;2.35;;
59974;SDS011;62136;-35.664;-63.766;2024-03-25T04:21:02;2.40;;;2.20;;
59974;SDS011;62136;-35.664;-63.766;2024-03-25T04:23:29;3.30;;;2.28;;
59974;SDS011;62136;-35.664;-63.766;2024-03-25T04:26:00;2.97;;;2.00;;
59974;SDS011;62136;-35.664;-63.766;2024-03-25T04:28:27;3.65;;;2.30;;
59974;SDS011;62136;-35.664;-63.766;2024-03-25T04:30:54;3.20;;;2.20;;
59974;SDS011;62136;-35.664;-63.766;2024-03-25T04:33:21;3.83;;;2.20;;
59974;SDS011;62136;-35.664;-63.766;2024-03-25T04:35:48;2.78;;;1.80;;
59974;SDS011;62136;-35.664;-63.766;2024-03-25T04:38:16;2.75;;;2.33;;
59974;SDS011;62136;-35.664;-63.766;2024-03-25T04:40:43;2.22;;;2.03;;
59974;SDS011;62136;-35.664;-63.766;2024-03-25T04:43:10;2.95;;;2.05;;
59974;SDS011;62136;-35.664;-63.766;2024-03-25T04:45:37;2.25;;;2.03;;
59974;SDS011;62136;-35.664;-63.766;2024-03-25T04:48:04;3.10;;;2.00;;
59974;SDS011;62136;-35.664;-63.766;2024-03-25T04:50:33;4.47;;;2.03;;
59974;SDS011;62136;-35.664;-63.766;2024-03-25T04:53:00;2.45;;;1.80;;
59974;SDS011;62136;-35.664;-63.766;2024-03-25T04:55:27;3.38;;;2.15;;
59974;SDS011;62136;-35.664;-63.766;2024-03-25T04:57:54;3.05;;;2.22;;
59974;SDS011;62136;-35.664;-63.766;2024-03-25T05:00:21;4.93;;;2.08;;
59974;SDS011;62136;-35.664;-63.766;2024-03-25T05:02:48;3.15;;;2.03;;
59974;SDS011;62136;-35.664;-63.766;2024-03-25T05:05:15;2.33;;;2.13;;
59974;SDS011;62136;-35.664;-63.766;2024-03-25T05:07:42;2.30;;;2.05;;
59974;SDS011;62136;-35.664;-63.766;2024-03-25T05:10:09;4.60;;;2.25;;
59974;SDS011;62136;-35.664;-63.766;2024-03-25T05:12:36;2.20;;;2.00;;
59974;SDS011;62136;-35.664;-63.766;2024-03-25T05:15:04;3.13;;;2.10;;
59974;SDS011;62136;-35.664;-63.766;2024-03-25T05:17:31;2.53;;;2.00;;
59974;SDS011;62136;-35.664;-63.766;2024-03-25T05:19:58;2.55;;;1.88;;
59974;SDS011;62136;-35.664;-63.766;2024-03-25T05:22:25;1.98;;;1.70;;
59974;SDS011;62136;-35.664;-63.766;2024-03-25T05:24:52;3.20;;;1.80;;
59974;SDS011;62136;-35.664;-63.766;2024-03-25T05:27:19;2.90;;;1.83;;
59974;SDS011;62136;-35.664;-63.766;2024-03-25T05:29:46;3.15;;;2.03;;
59974;SDS011;62136;-35.664;-63.766;2024-03-25T05:32:14;1.85;;;1.70;;
59974;SDS011;62136;-35.664;-63.766;2024-03-25T05:34:47;3.92;;;2.00;;
59974;SDS011;62136;-35.664;-63.766;2024-03-25T05:37:14;2.42;;;2.00;;
59974;SDS011;62136;-35.664;-63.766;2024-03-25T05:39:41;2.35;;;2.03;;
59974;SDS011;62136;-35.664;-63.766;2024-03-25T05:42:08;2.00;;;1.70;;
59974;SDS011;62136;-35.664;-63.766;2024-03-25T05:44:35;2.97;;;1.92;;
59974;SDS011;62136;-35.664;-63.766;2024-03-25T05:47:02;2.53;;;1.70;;
59974;SDS011;62136;-35.664;-63.766;2024-03-25T05:49:29;3.88;;;2.20;;
59974;SDS011;62136;-35.664;-63.766;2024-03-25T05:51:56;3.17;;;1.70;;
59974;SDS011;62136;-35.664;-63.766;2024-03-25T05:54:24;2.17;;;1.58;;
59974;SDS011;62136;-35.664;-63.766;2024-03-25T05:56:51;5.30;;;1.77;;
59974;SDS011;62136;-35.664;-63.766;2024-03-25T05:59:18;2.22;;;1.50;;
59974;SDS011;62136;-35.664;-63.766;2024-03-25T06:01:45;3.53;;;1.98;;
59974;SDS011;62136;-35.664;-63.766;2024-03-25T06:04:13;2.65;;;1.88;;
59974;SDS011;62136;-35.664;-63.766;2024-03-25T06:06:40;2.30;;;1.85;;
59974;SDS011;62136;-35.664;-63.766;2024-03-25T06:09:06;2.22;;;1.50;;
59974;SDS011;62136;-35.664;-63.766;2024-03-25T06:11:33;1.80;;;1.60;;
59974;SDS011;62136;-35.664;-63.766;2024-03-25T06:14:00;2.17;;;1.58;;
59974;SDS011;62136;-35.664;-63.766;2024-03-25T06:16:27;2.60;;;1.80;;
59974;SDS011;62136;-35.664;-63.766;2024-03-25T06:18:54;2.20;;;1.60;;
59974;SDS011;62136;-35.664;-63.766;2024-03-25T06:21:21;2.63;;;1.75;;
59974;SDS011;62136;-35.664;-63.766;2024-03-25T06:23:48;2.17;;;1.80;;
59974;SDS011;62136;-35.664;-63.766;2024-03-25T06:26:15;2.17;;;1.83;;
59974;SDS011;62136;-35.664;-63.766;2024-03-25T06:28:43;2.38;;;1.65;;
59974;SDS011;62136;-35.664;-63.766;2024-03-25T06:31:11;2.83;;;1.63;;
59974;SDS011;62136;-35.664;-63.766;2024-03-25T06:33:56;2.75;;;1.70;;
59974;SDS011;62136;-35.664;-63.766;2024-03-25T06:36:41;2.45;;;1.58;;
59974;SDS011;62136;-35.664;-63.766;2024-03-25T06:39:09;2.10;;;1.83;;
59974;SDS011;62136;-35.664;-63.766;2024-03-25T06:41:36;3.85;;;1.90;;
59974;SDS011;62136;-35.664;-63.766;2024-03-25T06:44:04;2.40;;;1.67;;
59974;SDS011;62136;-35.664;-63.766;2024-03-25T06:46:31;1.98;;;1.77;;
59974;SDS011;62136;-35.664;-63.766;2024-03-25T06:48:59;2.70;;;1.80;;
59974;SDS011;62136;-35.664;-63.766;2024-03-25T06:51:26;2.22;;;1.40;;
59974;SDS011;62136;-35.664;-63.766;2024-03-25T06:53:53;4.95;;;1.75;;
59974;SDS011;62136;-35.664;-63.766;2024-03-25T06:56:20;2.65;;;1.67;;
59974;SDS011;62136;-35.664;-63.766;2024-03-25T06:58:47;4.45;;;1.95;;
59974;SDS011;62136;-35.664;-63.766;2024-03-25T07:01:14;2.35;;;1.75;;
59974;SDS011;62136;-35.664;-63.766;2024-03-25T07:03:41;2.28;;;1.70;;
59974;SDS011;62136;-35.664;-63.766;2024-03-25T07:06:08;2.28;;;1.38;;
59974;SDS011;62136;-35.664;-63.766;2024-03-25T07:08:35;1.92;;;1.73;;
59974;SDS011;62136;-35.664;-63.766;2024-03-25T07:11:02;1.83;;;1.45;;
59974;SDS011;62136;-35.664;-63.766;2024-03-25T07:13:29;3.47;;;1.83;;
59974;SDS011;62136;-35.664;-63.766;2024-03-25T07:15:56;2.08;;;1.42;;
59974;SDS011;62136;-35.664;-63.766;2024-03-25T07:18:23;3.08;;;2.10;;
59974;SDS011;62136;-35.664;-63.766;2024-03-25T07:20:50;3.28;;;1.70;;
59974;SDS011;62136;-35.664;-63.766;2024-03-25T07:23:17;3.72;;;1.67;;
59974;SDS011;62136;-35.664;-63.766;2024-03-25T07:25:44;2.63;;;1.88;;
59974;SDS011;62136;-35.664;-63.766;2024-03-25T07:28:11;3.33;;;1.70;;
59974;SDS011;62136;-35.664;-63.766;2024-03-25T07:30:38;3.83;;;1.33;;
59974;SDS011;62136;-35.664;-63.766;2024-03-25T07:33:05;2.28;;;1.40;;
59974;SDS011;62136;-35.664;-63.766;2024-03-25T07:35:32;2.00;;;1.40;;
59974;SDS011;62136;-35.664;-63.766;2024-03-25T07:37:59;3.42;;;1.77;;
59974;SDS011;62136;-35.664;-63.766;2024-03-25T07:40:26;2.53;;;1.58;;
59974;SDS011;62136;-35.664;-63.766;2024-03-25T07:42:53;2.33;;;1.88;;
59974;SDS011;62136;-35.664;-63.766;2024-03-25T07:45:20;3.53;;;1.60;;
59974;SDS011;62136;-35.664;-63.766;2024-03-25T07:47:47;3.30;;;1.67;;
59974;SDS011;62136;-35.664;-63.766;2024-03-25T07:50:14;1.48;;;1.35;;
59974;SDS011;62136;-35.664;-63.766;2024-03-25T07:52:41;2.53;;;1.33;;
59974;SDS011;62136;-35.664;-63.766;2024-03-25T07:55:08;2.35;;;1.42;;
59974;SDS011;62136;-35.664;-63.766;2024-03-25T07:57:35;2.65;;;1.38;;
59974;SDS011;62136;-35.664;-63.766;2024-03-25T08:00:03;2.25;;;1.23;;
59974;SDS011;62136;-35.664;-63.766;2024-03-25T08:02:35;2.70;;;1.50;;
59974;SDS011;62136;-35.664;-63.766;2024-03-25T08:05:02;1.30;;;1.10;;
59974;SDS011;62136;-35.664;-63.766;2024-03-25T08:07:29;3.83;;;1.67;;
59974;SDS011;62136;-35.664;-63.766;2024-03-25T08:09:56;1.73;;;1.25;;
59974;SDS011;62136;-35.664;-63.766;2024-03-25T08:12:23;2.45;;;1.45;;
59974;SDS011;62136;-35.664;-63.766;2024-03-25T08:14:50;1.40;;;1.30;;
59974;SDS011;62136;-35.664;-63.766;2024-03-25T08:17:17;3.22;;;1.33;;
59974;SDS011;62136;-35.664;-63.766;2024-03-25T08:19:44;1.42;;;1.33;;
59974;SDS011;62136;-35.664;-63.766;2024-03-25T08:22:11;1.35;;;1.10;;
59974;SDS011;62136;-35.664;-63.766;2024-03-25T08:24:38;4.82;;;1.52;;
59974;SDS011;62136;-35.664;-63.766;2024-03-25T08:27:04;2.08;;;1.30;;
59974;SDS011;62136;-35.664;-63.766;2024-03-25T08:29:32;2.50;;;1.30;;
59974;SDS011;62136;-35.664;-63.766;2024-03-25T08:31:59;2.08;;;1.10;;
59974;SDS011;62136;-35.664;-63.766;2024-03-25T08:34:26;2.72;;;1.20;;
59974;SDS011;62136;-35.664;-63.766;2024-03-25T08:36:53;2.20;;;1.33;;
59974;SDS011;62136;-35.664;-63.766;2024-03-25T08:39:20;1.80;;;1.05;;
59974;SDS011;62136;-35.664;-63.766;2024-03-25T08:41:47;1.83;;;1.20;;
59974;SDS011;62136;-35.664;-63.766;2024-03-25T08:44:14;2.58;;;1.48;;
59974;SDS011;62136;-35.664;-63.766;2024-03-25T08:46:41;1.88;;;1.40;;
59974;SDS011;62136;-35.664;-63.766;2024-03-25T08:49:08;2.05;;;1.23;;
59974;SDS011;62136;-35.664;-63.766;2024-03-25T08:51:35;1.85;;;1.35;;
59974;SDS011;62136;-35.664;-63.766;2024-03-25T08:54:02;2.20;;;1.10;;
59974;SDS011;62136;-35.664;-63.766;2024-03-25T08:56:29;1.80;;;1.10;;
59974;SDS011;62136;-35.664;-63.766;2024-03-25T08:58:56;1.70;;;1.30;;
59974;SDS011;62136;-35.664;-63.766;2024-03-25T09:01:23;2.47;;;1.02;;
59974;SDS011;62136;-35.664;-63.766;2024-03-25T09:03:51;1.70;;;1.23;;
59974;SDS011;62136;-35.664;-63.766;2024-03-25T09:06:18;1.35;;;1.00;;
59974;SDS011;62136;-35.664;-63.766;2024-03-25T09:08:45;2.92;;;1.10;;
59974;SDS011;62136;-35.664;-63.766;2024-03-25T09:11:30;1.60;;;1.15;;
59974;SDS011;62136;-35.664;-63.766;2024-03-25T09:13:57;2.25;;;1.13;;
59974;SDS011;62136;-35.664;-63.766;2024-03-25T09:16:25;2.03;;;1.20;;
59974;SDS011;62136;-35.664;-63.766;2024-03-25T09:18:52;1.58;;;1.10;;
59974;SDS011;62136;-35.664;-63.766;2024-03-25T09:21:19;2.10;;;1.15;;
59974;SDS011;62136;-35.664;-63.766;2024-03-25T09:23:46;2.50;;;0.93;;
59974;SDS011;62136;-35.664;-63.766;2024-03-25T09:26:13;1.70;;;1.13;;
59974;SDS011;62136;-35.664;-63.766;2024-03-25T09:28:40;1.48;;;1.35;;
59974;SDS011;62136;-35.664;-63.766;2024-03-25T09:31:07;1.30;;;1.02;;
59974;SDS011;62136;-35.664;-63.766;2024-03-25T09:33:34;1.77;;;1.27;;
59974;SDS011;62136;-35.664;-63.766;2024-03-25T09:36:01;1.75;;;1.10;;
59974;SDS011;62136;-35.664;-63.766;2024-03-25T09:38:28;1.60;;;1.05;;
59974;SDS011;62136;-35.664;-63.766;2024-03-25T09:40:55;2.10;;;1.10;;
59974;SDS011;62136;-35.664;-63.766;2024-03-25T09:43:25;1.42;;;0.90;;
59974;SDS011;62136;-35.664;-63.766;2024-03-25T09:45:59;0.95;;;0.80;;
59974;SDS011;62136;-35.664;-63.766;2024-03-25T09:48:26;2.88;;;1.23;;
59974;SDS011;62136;-35.664;-63.766;2024-03-25T09:50:54;1.52;;;1.02;;
59974;SDS011;62136;-35.664;-63.766;2024-03-25T09:53:22;1.30;;;1.05;;
59974;SDS011;62136;-35.664;-63.766;2024-03-25T09:55:49;1.70;;;1.13;;
59974;SDS011;62136;-35.664;-63.766;2024-03-25T09:58:16;1.02;;;0.80;;
59974;SDS011;62136;-35.664;-63.766;2024-03-25T10:00:45;1.40;;;0.70;;
59974;SDS011;62136;-35.664;-63.766;2024-03-25T10:03:13;1.05;;;0.80;;
59974;SDS011;62136;-35.664;-63.766;2024-03-25T10:05:40;2.92;;;1.02;;
59974;SDS011;62136;-35.664;-63.766;2024-03-25T10:08:07;1.67;;;1.05;;
59974;SDS011;62136;-35.664;-63.766;2024-03-25T10:10:35;1.45;;;0.90;;
59974;SDS011;62136;-35.664;-63.766;2024-03-25T10:13:05;1.52;;;1.00;;
59974;SDS011;62136;-35.664;-63.766;2024-03-25T10:15:32;3.28;;;0.95;;
59974;SDS011;62136;-35.664;-63.766;2024-03-25T10:17:59;1.60;;;1.00;;
59974;SDS011;62136;-35.664;-63.766;2024-03-25T10:20:27;1.92;;;1.10;;
59974;SDS011;62136;-35.664;-63.766;2024-03-25T10:22:54;3.17;;;1.10;;
59974;SDS011;62136;-35.664;-63.766;2024-03-25T10:25:28;1.50;;;1.40;;
59974;SDS011;62136;-35.664;-63.766;2024-03-25T10:27:56;2.42;;;2.13;;
59974;SDS011;62136;-35.664;-63.766;2024-03-25T10:30:27;2.65;;;1.30;;
59974;SDS011;62136;-35.664;-63.766;2024-03-25T10:33:04;3.70;;;1.42;;
59974;SDS011;62136;-35.664;-63.766;2024-03-25T10:35:33;1.70;;;1.35;;
59974;SDS011;62136;-35.664;-63.766;2024-03-25T10:38:04;3.47;;;1.52;;
59974;SDS011;62136;-35.664;-63.766;2024-03-25T10:40:39;1.48;;;0.98;;
59974;SDS011;62136;-35.664;-63.766;2024-03-25T10:45:43;1.67;;;1.25;;
59974;SDS011;62136;-35.664;-63.766;2024-03-25T10:50:50;2.47;;;1.15;;
59974;SDS011;62136;-35.664;-63.766;2024-03-25T10:53:20;6.60;;;1.33;;
59974;SDS011;62136;-35.664;-63.766;2024-03-25T10:55:56;1.55;;;0.98;;
59974;SDS011;62136;-35.664;-63.766;2024-03-25T10:58:23;1.73;;;1.00;;
59974;SDS011;62136;-35.664;-63.766;2024-03-25T11:00:53;4.03;;;1.38;;
59974;SDS011;62136;-35.664;-63.766;2024-03-25T11:03:23;10.50;;;1.55;;
59974;SDS011;62136;-35.664;-63.766;2024-03-25T11:05:51;9.20;;;1.73;;
59974;SDS011;62136;-35.664;-63.766;2024-03-25T11:08:19;5.75;;;1.40;;
59974;SDS011;62136;-35.664;-63.766;2024-03-25T11:10:46;6.25;;;1.15;;
59974;SDS011;62136;-35.664;-63.766;2024-03-25T11:13:14;5.93;;;1.33;;
59974;SDS011;62136;-35.664;-63.766;2024-03-25T11:15:45;6.15;;;1.40;;
59974;SDS011;62136;-35.664;-63.766;2024-03-25T11:18:13;5.35;;;1.70;;
59974;SDS011;62136;-35.664;-63.766;2024-03-25T11:20:59;9.82;;;1.95;;
59974;SDS011;62136;-35.664;-63.766;2024-03-25T11:23:34;5.97;;;1.98;;
59974;SDS011;62136;-35.664;-63.766;2024-03-25T11:26:04;8.82;;;1.75;;
59974;SDS011;62136;-35.664;-63.766;2024-03-25T11:28:31;6.13;;;1.50;;
59974;SDS011;62136;-35.664;-63.766;2024-03-25T11:30:58;3.47;;;1.10;;
59974;SDS011;62136;-35.664;-63.766;2024-03-25T11:33:26;5.07;;;1.80;;
59974;SDS011;62136;-35.664;-63.766;2024-03-25T11:35:53;8.40;;;2.00;;
59974;SDS011;62136;-35.664;-63.766;2024-03-25T11:38:40;13.35;;;2.90;;
59974;SDS011;62136;-35.664;-63.766;2024-03-25T11:41:13;11.18;;;2.42;;
59974;SDS011;62136;-35.664;-63.766;2024-03-25T11:43:41;11.23;;;2.97;;
59974;SDS011;62136;-35.664;-63.766;2024-03-25T11:46:09;8.73;;;2.75;;
59974;SDS011;62136;-35.664;-63.766;2024-03-25T11:48:36;7.90;;;2.28;;
59974;SDS011;62136;-35.664;-63.766;2024-03-25T11:51:03;8.98;;;2.25;;
59974;SDS011;62136;-35.664;-63.766;2024-03-25T11:53:31;9.48;;;2.65;;
59974;SDS011;62136;-35.664;-63.766;2024-03-25T11:55:58;6.72;;;2.10;;
59974;SDS011;62136;-35.664;-63.766;2024-03-25T11:58:26;10.85;;;2.10;;
59974;SDS011;62136;-35.664;-63.766;2024-03-25T12:00:54;10.52;;;1.75;;
59974;SDS011;62136;-35.664;-63.766;2024-03-25T12:03:22;7.28;;;1.40;;
59974;SDS011;62136;-35.664;-63.766;2024-03-25T12:05:51;5.55;;;1.75;;
59974;SDS011;62136;-35.664;-63.766;2024-03-25T12:08:18;5.20;;;1.42;;
59974;SDS011;62136;-35.664;-63.766;2024-03-25T12:10:46;5.68;;;1.27;;
59974;SDS011;62136;-35.664;-63.766;2024-03-25T12:13:31;4.05;;;1.48;;
59974;SDS011;62136;-35.664;-63.766;2024-03-25T12:15:58;5.13;;;1.50;;
59974;SDS011;62136;-35.664;-63.766;2024-03-25T12:18:25;5.43;;;1.30;;
59974;SDS011;62136;-35.664;-63.766;2024-03-25T12:20:53;3.65;;;1.10;;
59974;SDS011;62136;-35.664;-63.766;2024-03-25T12:23:22;2.78;;;1.25;;
59974;SDS011;62136;-35.664;-63.766;2024-03-25T12:25:54;3.88;;;1.30;;
59974;SDS011;62136;-35.664;-63.766;2024-03-25T12:28:21;7.43;;;1.23;;
59974;SDS011;62136;-35.664;-63.766;2024-03-25T12:30:50;7.40;;;1.50;;
59974;SDS011;62136;-35.664;-63.766;2024-03-25T12:33:17;4.72;;;1.20;;
59974;SDS011;62136;-35.664;-63.766;2024-03-25T12:35:50;5.40;;;1.35;;
59974;SDS011;62136;-35.664;-63.766;2024-03-25T12:38:22;3.70;;;1.33;;
59974;SDS011;62136;-35.664;-63.766;2024-03-25T12:40:49;5.28;;;2.13;;
59974;SDS011;62136;-35.664;-63.766;2024-03-25T12:43:17;5.05;;;1.60;;
59974;SDS011;62136;-35.664;-63.766;2024-03-25T12:45:44;4.13;;;1.45;;
59974;SDS011;62136;-35.664;-63.766;2024-03-25T12:48:11;6.80;;;1.52;;
59974;SDS011;62136;-35.664;-63.766;2024-03-25T12:50:39;1.73;;;1.00;;
59974;SDS011;62136;-35.664;-63.766;2024-03-25T12:53:06;2.22;;;1.13;;
59974;SDS011;62136;-35.664;-63.766;2024-03-25T12:55:33;4.15;;;1.33;;
59974;SDS011;62136;-35.664;-63.766;2024-03-25T12:58:00;3.50;;;1.10;;
59974;SDS011;62136;-35.664;-63.766;2024-03-25T13:00:28;3.25;;;1.13;;
59974;SDS011;62136;-35.664;-63.766;2024-03-25T13:02:57;4.82;;;1.08;;
59974;SDS011;62136;-35.664;-63.766;2024-03-25T13:05:26;3.03;;;1.30;;
59974;SDS011;62136;-35.664;-63.766;2024-03-25T13:07:54;4.57;;;1.23;;
59974;SDS011;62136;-35.664;-63.766;2024-03-25T13:10:21;2.40;;;1.33;;
59974;SDS011;62136;-35.664;-63.766;2024-03-25T13:12:48;3.28;;;1.27;;
59974;SDS011;62136;-35.664;-63.766;2024-03-25T13:15:15;3.63;;;1.48;;
59974;SDS011;62136;-35.664;-63.766;2024-03-25T13:17:42;1.83;;;1.13;;
59974;SDS011;62136;-35.664;-63.766;2024-03-25T13:20:14;3.00;;;1.23;;
59974;SDS011;62136;-35.664;-63.766;2024-03-25T13:22:41;6.90;;;1.10;;
59974;SDS011;62136;-35.664;-63.766;2024-03-25T13:25:10;2.95;;;1.10;;
59974;SDS011;62136;-35.664;-63.766;2024-03-25T13:27:38;3.78;;;1.30;;
59974;SDS011;62136;-35.664;-63.766;2024-03-25T13:30:05;4.22;;;1.27;;
59974;SDS011;62136;-35.664;-63.766;2024-03-25T13:32:32;3.33;;;1.40;;
59974;SDS011;62136;-35.664;-63.766;2024-03-25T13:35:00;3.28;;;1.00;;
59974;SDS011;62136;-35.664;-63.766;2024-03-25T13:37:47;4.85;;;1.20;;
59974;SDS011;62136;-35.664;-63.766;2024-03-25T13:40:14;4.65;;;1.38;;
59974;SDS011;62136;-35.664;-63.766;2024-03-25T13:42:41;3.40;;;1.33;;
59974;SDS011;62136;-35.664;-63.766;2024-03-25T13:45:08;4.60;;;1.15;;
59974;SDS011;62136;-35.664;-63.766;2024-03-25T13:47:35;2.95;;;1.10;;
59974;SDS011;62136;-35.664;-63.766;2024-03-25T13:50:06;6.43;;;1.73;;
59974;SDS011;62136;-35.664;-63.766;2024-03-25T13:52:34;3.65;;;1.10;;
59974;SDS011;62136;-35.664;-63.766;2024-03-25T13:55:02;3.28;;;1.83;;
59974;SDS011;62136;-35.664;-63.766;2024-03-25T13:57:29;4.25;;;1.52;;
59974;SDS011;62136;-35.664;-63.766;2024-03-25T13:59:56;10.18;;;2.75;;
59974;SDS011;62136;-35.664;-63.766;2024-03-25T14:02:24;11.18;;;2.08;;
59974;SDS011;62136;-35.664;-63.766;2024-03-25T14:04:54;8.88;;;1.98;;
59974;SDS011;62136;-35.664;-63.766;2024-03-25T14:07:21;7.43;;;2.05;;
59974;SDS011;62136;-35.664;-63.766;2024-03-25T14:09:48;6.75;;;2.28;;
59974;SDS011;62136;-35.664;-63.766;2024-03-25T14:12:15;13.73;;;2.78;;
59974;SDS011;62136;-35.664;-63.766;2024-03-25T14:14:43;6.60;;;2.13;;
59974;SDS011;62136;-35.664;-63.766;2024-03-25T14:17:10;6.38;;;2.08;;
59974;SDS011;62136;-35.664;-63.766;2024-03-25T14:19:37;7.13;;;2.40;;